Latest Weather Observations for Armidale Airport

IDN60801

Issued at 3:32 pm EST Saturday 1 August 2015 (issued every 30 minutes, with the page automatically refreshed every 10 minutes)

About weather observations | Map of weather stations | Latest weather observations for NSW | Other Formats
Station Details ID: 056238 Name: ARMIDALE AIRPORT AWS Lat: -30.53 Lon: 151.62 Height: 1079.0 m
Data from the previous 72 hours. | See also: Recent months for locations in New South Wales
Date/Time
EST
Temp
°C
App
Temp
°C
Dew
Point
Rel
Hum
%
Delta-T
°C
Wind Press
QNH
hPa
Press
MSL
hPa
Rain
since 9 am
mm
Dir
 
Spd
km/h
Gust
km/h
Spd
kts
Gust
kts
01/03:30pm 16.4 10.4 3.5 42 6.3 WNW 24 33 13 18 1021.9 1021.7 0.0
01/03:00pm 16.4 9.9 2.8 40 6.5 WNW 26 33 14 18 1022.0 1021.8 0.0
01/02:30pm 16.4 9.8 2.1 38 6.8 WNW 26 37 14 20 1022.0 1021.8 0.0
01/02:00pm 16.8 9.9 2.8 39 6.7 WNW 28 35 15 19 1022.0 1021.8 0.0
01/01:30pm 16.8 9.9 2.8 39 6.8 WNW 28 33 15 18 1021.9 1021.7 0.0
01/01:00pm 16.4 9.7 1.3 36 7.0 WNW 26 35 14 19 1022.4 1022.1 0.0
01/12:30pm 16.6 10.6 3.3 41 6.5 WNW 24 35 13 19 1022.8 1022.6 0.0
01/12:00pm 15.7 10.0 2.8 42 6.2 WNW 22 28 12 15 1023.0 1022.8 0.0
01/11:30am 14.7 9.3 2.3 43 5.8 WNW 20 28 11 15 1023.5 1023.3 0.0
01/11:00am 14.6 8.2 1.2 40 6.1 WNW 24 30 13 16 1023.8 1023.6 0.0
01/10:30am 13.9 7.0 0.2 39 6.1 WNW 26 32 14 17 1023.7 1023.5 0.0
01/10:00am 13.5 6.3 0.5 41 5.8 WNW 28 33 15 18 1023.9 1023.7 0.0
01/09:30am 12.3 5.1 1.0 46 5.1 WNW 28 33 15 18 1023.9 1024.2 0.0
01/09:00am 11.0 5.7 2.8 57 3.8 NW 20 24 11 13 1023.7 1024.0 0.0
01/08:30am 9.1 3.9 3.3 67 2.7 NW 20 28 11 15 1023.5 1023.8 0.0
01/08:00am 7.4 2.9 2.3 70 2.2 WNW 15 20 8 11 1023.5 1023.8 0.0
01/07:30am 5.6 1.0 1.7 76 1.7 NW 15 20 8 11 1023.4 1023.6 0.0
01/07:00am 4.1 -0.3 0.4 77 1.5 NW 13 17 7 9 1023.2 1023.5 0.0
01/06:30am 4.1 -0.3 0.4 77 1.5 NW 13 15 7 8 1022.9 1023.2 0.0
01/06:00am 4.4 0.0 0.6 76 1.6 NW 13 15 7 8 1022.6 1022.8 0.0
01/05:30am 4.0 -0.4 0.2 76 1.5 WNW 13 15 7 8 1022.2 1022.5 0.0
01/05:00am 3.8 0.1 0.0 76 1.5 NW 9 11 5 6 1022.2 1022.5 0.0
01/04:30am 4.5 1.2 -0.1 72 1.9 NW 7 11 4 6 1022.1 1022.4 0.0
01/04:00am 4.8 1.8 0.9 76 1.6 NW 6 7 3 4 1022.2 1022.5 0.0
01/03:30am 3.7 0.5 0.9 82 1.2 NW 7 9 4 5 1022.5 1022.7 0.0
01/03:00am 3.6 0.4 0.7 81 1.2 NW 7 11 4 6 1022.7 1023.0 0.0
01/02:30am 3.1 -0.5 0.3 82 1.1 NW 9 11 5 6 1023.1 1023.4 0.0
01/02:00am 3.7 0.4 0.2 78 1.4 NW 7 11 4 6 1023.2 1023.5 0.0
01/01:30am 4.2 0.9 0.4 76 1.6 W 7 9 4 5 1023.7 1024.0 0.0
01/01:00am 4.4 1.4 1.1 79 1.4 NW 6 7 3 4 1024.0 1024.3 0.0
01/12:30am 4.1 1.0 0.3 76 1.6 NW 6 7 3 4 1024.0 1024.3 0.0
01/12:00am 5.0 1.8 0.6 73 1.8 NW 7 9 4 5 1024.4 1024.7 0.0
 
Date/Time
EST
Temp
°C
App
Temp
°C
Dew
Point
Rel
Hum
%
Delta-T
°C
Wind Press
QNH
hPa
Press
MSL
hPa
Rain
since 9 am
mm
Dir
 
Spd
km/h
Gust
km/h
Spd
kts
Gust
kts
31/11:30pm 5.2 1.7 1.0 74 1.8 NW 9 11 5 6 1024.1 1024.4 0.0
31/11:00pm 4.8 0.8 0.6 74 1.7 NW 11 13 6 7 1024.1 1024.4 0.0
31/10:30pm 5.4 1.5 1.1 74 1.8 NW 11 13 6 7 1024.4 1024.7 0.0
31/10:00pm 5.3 1.8 1.2 75 1.7 NW 9 11 5 6 1024.2 1024.6 0.0
31/09:30pm 5.1 0.8 0.9 74 1.8 NW 13 15 7 8 1024.1 1024.4 0.0
31/09:00pm 5.0 0.6 0.6 73 1.8 NW 13 15 7 8 1024.0 1024.3 0.0
31/08:30pm 6.4 2.9 1.1 69 2.3 WNW 9 9 5 5 1023.8 1024.1 0.0
31/08:00pm 6.9 3.8 1.2 67 2.4 WNW 7 9 4 5 1023.8 1024.1 0.0
31/07:30pm 6.5 2.6 1.0 68 2.3 WNW 11 15 6 8 1023.8 1024.1 0.0
31/07:00pm 6.9 3.4 1.0 66 2.5 NW 9 13 5 7 1023.5 1023.8 0.0
31/06:30pm 6.9 3.4 1.0 66 2.5 WNW 9 13 5 7 1023.2 1023.5 0.0
31/06:00pm 7.6 3.6 0.6 61 3.0 NW 11 13 6 7 1022.9 1023.2 0.0
31/05:30pm 9.4 5.4 0.8 55 3.7 NNW 11 15 6 8 1022.7 1023.0 0.0
31/05:00pm 11.3 7.1 1.5 51 4.4 WNW 13 17 7 9 1022.5 1022.7 0.0
31/04:30pm 12.5 7.0 0.6 44 5.3 WNW 19 24 10 13 1022.2 1022.5 0.0
31/04:00pm 13.3 8.4 1.9 46 5.2 WNW 17 20 9 11 1022.2 1022.5 0.0
31/03:30pm 13.3 7.9 1.3 44 5.5 WNW 19 24 10 13 1022.4 1022.6 0.0
31/03:00pm 13.2 7.6 0.9 43 5.5 WNW 20 26 11 14 1022.5 1022.7 0.0
31/02:30pm 13.4 7.9 1.7 45 5.4 W 20 26 11 14 1022.6 1022.8 0.0
31/02:00pm 13.1 7.7 1.5 45 5.3 WNW 19 22 10 12 1022.6 1022.8 0.0
31/01:30pm 13.5 7.8 -0.9 37 6.3 NW 19 28 10 15 1022.8 1023.1 0.0
31/01:00pm 12.9 7.1 -1.4 37 6.1 WNW 19 26 10 14 1023.1 1023.4 0.0
31/12:30pm 12.6 6.8 -1.7 37 6.1 W 19 26 10 14 1023.4 1023.6 0.0
31/12:00pm 12.3 6.9 -1.2 39 5.8 WNW 17 24 9 13 1023.7 1024.0 0.0
31/11:30am 12.0 6.4 0.1 44 5.2 WNW 19 30 10 16 1024.1 1024.4 0.0
31/11:00am 11.6 5.9 0.7 47 4.8 W 20 30 11 16 1024.6 1024.9 0.0
31/10:30am 11.7 6.5 2.5 53 4.2 WNW 19 28 10 15 1024.7 1025.0 0.0
31/10:00am 10.6 5.9 3.2 60 3.4 WNW 17 24 9 13 1024.7 1025.0 0.0
31/09:30am 10.0 5.0 3.7 65 2.9 NW 19 26 10 14 1024.6 1024.9 0.0
31/09:00am 9.1 4.0 4.3 72 2.2 NW 20 26 11 14 1024.4 1024.7 0.0
31/08:30am 8.0 3.5 4.4 78 1.7 NW 17 22 9 12 1024.0 1024.3 0.0
31/08:00am 6.4 2.2 3.9 84 1.1 NW 15 20 8 11 1023.8 1024.1 0.0
31/07:30am 4.7 0.7 2.7 87 0.9 WNW 13 15 7 8 1023.9 1024.2 0.0
31/07:00am 3.0 -1.2 1.7 91 0.5 WNW 13 15 7 8 1023.5 1023.8 0.0
31/06:30am 2.6 -1.6 1.6 93 0.4 WNW 13 13 7 7 1023.0 1023.3 0.0
31/06:00am 2.7 -1.5 1.7 93 0.4 WNW 13 17 7 9 1022.8 1023.1 0.0
31/05:30am 2.9 -1.2 2.0 94 0.4 WNW 13 15 7 8 1022.7 1023.0 0.0
31/05:00am 2.8 -2.1 2.1 95 0.3 NW 17 20 9 11 1022.7 1023.0 0.0
31/04:30am 1.7 -2.3 0.8 94 0.4 WNW 11 15 6 8 1022.7 1023.0 0.0
31/04:00am 1.9 -2.1 0.6 91 0.5 WNW 11 11 6 6 1022.7 1023.0 0.0
31/03:30am 2.3 -0.8 1.1 92 0.5 WNW 7 9 4 5 1022.7 1023.0 0.0
31/03:00am 2.1 -1.8 1.4 95 0.3 NW 11 13 6 7 1022.7 1023.0 0.0
31/02:30am 2.2 -2.0 1.5 95 0.3 NW 13 15 7 8 1023.0 1023.3 0.0
31/02:00am 2.6 -1.9 1.9 95 0.3 NW 15 17 8 9 1023.2 1023.5 0.0
31/01:30am 2.4 -2.6 1.5 94 0.4 NW 17 19 9 10 1023.8 1024.1 0.0
31/01:00am 2.7 -1.2 1.4 91 0.5 WNW 11 13 6 7 1024.0 1024.3 0.0
31/12:30am 3.5 -1.0 2.0 90 0.6 NW 15 19 8 10 1024.0 1024.3 0.0
31/12:00am 4.0 -0.9 1.7 85 1.0 NW 17 20 9 11 1024.0 1024.3 0.0
 
Date/Time
EST
Temp
°C
App
Temp
°C
Dew
Point
Rel
Hum
%
Delta-T
°C
Wind Press
QNH
hPa
Press
MSL
hPa
Rain
since 9 am
mm
Dir
 
Spd
km/h
Gust
km/h
Spd
kts
Gust
kts
30/11:30pm 4.3 -0.3 1.3 81 1.3 WNW 15 17 8 9 1024.4 1024.7 0.0
30/11:00pm 4.1 -0.6 1.1 81 1.2 W 15 19 8 10 1024.7 1025.0 0.0
30/10:30pm 4.7 -0.3 1.6 80 1.3 NW 17 20 9 11 1024.2 1024.6 0.0
30/10:00pm 4.9 -0.1 1.2 77 1.6 NW 17 19 9 10 1024.2 1024.6 0.0
30/09:30pm 5.5 0.5 1.4 75 1.7 NW 17 19 9 10 1024.4 1024.7 0.0
30/09:00pm 5.5 0.8 1.2 74 1.8 NW 15 19 8 10 1024.2 1024.6 0.0
30/08:30pm 5.2 0.1 1.0 74 1.8 NW 17 19 9 10 1024.1 1024.4 0.0
30/08:00pm 5.5 0.4 0.9 72 1.9 WNW 17 19 9 10 1024.1 1024.4 0.0
30/07:30pm 5.6 0.5 0.6 70 2.1 WNW 17 20 9 11 1024.2 1024.6 0.0
30/07:00pm 6.8 2.5 1.3 68 2.4 NW 13 19 7 10 1024.0 1024.3 0.0
30/06:30pm 6.0 3.0 0.6 68 2.3 WNW 6 9 3 5 1024.2 1024.6 0.0
30/06:00pm 6.9 3.3 0.6 64 2.7 NW 9 13 5 7 1024.2 1024.6 0.0
30/05:30pm 8.0 3.7 1.0 61 3.0 NW 13 17 7 9 1024.5 1024.8 0.0
30/05:00pm 10.0 4.8 0.3 51 4.2 WNW 17 22 9 12 1024.4 1024.7 0.0
30/04:30pm 11.2 6.5 1.2 50 4.5 WNW 15 20 8 11 1024.6 1024.9 0.0
30/04:00pm 12.1 6.1 0.8 46 5.0 W 22 30 12 16 1024.9 1025.2 0.0
30/03:30pm 12.2 6.0 -0.6 41 5.5 WNW 22 30 12 16 1024.7 1025.0 0.0
30/03:00pm 12.6 6.4 -0.3 41 5.6 WNW 22 32 12 17 1024.7 1025.0 0.0
30/02:30pm 13.0 7.1 1.7 46 5.2 WNW 22 30 12 16 1024.7 1025.0 0.0
30/02:00pm 13.2 7.4 -0.4 39 5.9 NW 20 30 11 16 1024.8 1025.1 0.0
30/01:30pm 12.8 7.2 1.2 45 5.3 WNW 20 28 11 15 1025.2 1025.6 0.0
30/01:00pm 12.7 7.0 0.5 43 5.4 WNW 20 32 11 17 1025.7 1026.0 0.0
30/12:30pm 12.5 6.6 -0.7 40 5.7 NW 20 30 11 16 1026.2 1026.6 0.0
30/12:00pm 12.7 7.2 0.8 44 5.3 WNW 19 24 10 13 1026.9 1027.3 0.0
30/11:30am 12.0 5.2 -1.9 38 5.8 NW 24 30 13 16 1027.4 1027.7 0.0
30/11:00am 12.3 6.7 1.0 46 5.0 NNW 20 28 11 15 1027.7 1028.1 0.0
30/10:30am 11.5 4.8 1.5 50 4.5 NW 26 33 14 18 1028.4 1028.8 0.0
30/10:00am 10.4 5.1 2.0 56 3.8 NW 19 28 10 15 1028.5 1028.9 0.0
30/09:30am 9.1 5.1 4.7 74 2.1 NW 15 19 8 10 1028.6 1029.0 0.0
30/09:00am 8.5 5.8 5.6 82 1.4 NW 9 13 5 7 1028.7 1029.1 0.2
30/08:30am 7.6 6.5 5.2 85 1.1 CALM 0 0 0 0 1028.7 1029.1 0.2
30/08:00am 5.5 4.1 5.4 99 0.0 NNE 2 6 1 3 1028.7 1029.1 0.2
30/07:30am 3.2 1.0 3.2 100 0.0 NE 4 6 2 3 1028.4 1028.8 0.0
30/07:00am 0.7 -2.9 0.6 99 0.0 ENE 9 11 5 6 1028.0 1028.4 0.0
30/06:30am -0.1 -4.2 -0.2 99 0.0 NE 11 11 6 6 1027.6 1028.0 0.0
30/06:19am 0.0 -3.7 -0.1 99 0.0 NE 9 11 5 6 1027.5 1027.9 0.0
30/06:02am 0.4 -2.9 0.3 99 0.0 NE 7 9 4 5 1027.6 1028.0 0.0
30/06:00am 0.4 -3.2 0.3 99 0.0 NE 9 9 5 5 1027.6 1028.0 0.0
30/05:45am 0.2 -3.5 0.1 99 0.0 NE 9 11 5 6 1027.5 1027.9 0.0
30/05:30am 1.0 -2.6 0.9 99 0.0 ENE 9 11 5 6 1027.6 1028.0 0.0
30/05:25am 1.4 -2.1 1.3 99 0.0 ENE 9 11 5 6 1027.6 1028.0 0.0
30/05:00am 2.7 0.0 2.6 99 0.0 ENE 6 9 3 5 1027.5 1027.9 0.0
30/04:30am 1.9 -1.9 1.8 99 0.0 NE 11 13 6 7 1027.6 1028.0 0.0
30/04:00am 2.2 -1.5 2.1 99 0.0 ENE 11 15 6 8 1027.7 1028.1 0.0
30/03:30am 1.5 -2.4 1.4 99 0.0 ENE 11 13 6 7 1027.9 1028.3 0.0
30/03:00am 2.0 -1.8 1.9 99 0.0 ENE 11 13 6 7 1028.1 1028.5 0.0
30/02:30am 1.9 -1.5 1.8 99 0.0 ENE 9 9 5 5 1028.4 1028.8 0.0
30/02:00am 1.8 -2.4 1.7 99 0.0 ENE 13 15 7 8 1028.7 1029.1 0.0
30/01:30am 1.7 -2.5 1.6 99 0.0 ENE 13 13 7 7 1029.2 1029.7 0.0
30/01:13am 2.6 -0.7 2.5 99 0.0 ENE 9 11 5 6 1029.4 1029.8 0.0
30/01:00am 1.8 -2.4 1.7 99 0.0 ENE 13 13 7 7 1029.5 1029.9 0.0
30/12:30am 1.9 -2.3 1.8 99 0.0 NE 13 13 7 7 1030.0 1030.5 0.0
30/12:02am 2.1 0.4 1.8 98 0.1 CALM 0 0 0 0 1030.2 1030.7 0.0
30/12:00am 2.7 1.1 2.4 98 0.1 CALM 0 0 0 0 1030.2 1030.7 0.0
 
Date/Time
EST
Temp
°C
App
Temp
°C
Dew
Point
Rel
Hum
%
Delta-T
°C
Wind Press
QNH
hPa
Press
MSL
hPa
Rain
since 9 am
mm
Dir
 
Spd
km/h
Gust
km/h
Spd
kts
Gust
kts
29/11:30pm 3.5 0.3 3.2 98 0.1 NE 9 11 5 6 1030.4 1030.8 0.0
29/11:00pm 4.0 -0.6 3.9 99 0.0 E 17 19 9 10 1030.0 1030.5 0.0
29/10:30pm 4.4 -0.5 4.3 99 0.0 E 19 20 10 11 1030.1 1030.6 0.0
29/10:00pm 3.5 -1.2 3.4 99 0.0 ENE 17 17 9 9 1029.9 1030.4 0.0
29/09:30pm 3.0 -1.4 2.7 98 0.1 ENE 15 17 8 9 1030.7 1031.2 0.0
29/09:00pm 3.5 -0.4 3.2 98 0.1 ENE 13 17 7 9 1030.9 1031.4 0.0
29/08:30pm 5.0 1.7 4.7 98 0.1 E 11 13 6 7 1030.9 1031.4 0.0
29/08:00pm 5.2 1.9 4.5 95 0.3 E 11 13 6 7 1030.8 1031.3 0.0
29/07:30pm 5.8 2.9 4.8 93 0.5 ESE 9 11 5 6 1030.7 1031.2 0.0
29/07:00pm 5.5 2.5 4.2 91 0.6 E 9 11 5 6 1030.5 1030.9 0.0
29/06:30pm 6.3 3.0 4.3 87 0.9 E 11 13 6 7 1030.1 1030.6 0.0
29/06:00pm 6.8 3.7 3.8 81 1.4 ESE 9 13 5 7 1029.7 1030.1 0.0
29/05:30pm 8.1 5.1 4.1 76 1.9 SE 9 13 5 7 1029.8 1030.2 0.0
29/05:00pm 9.2 5.4 4.0 70 2.4 SE 13 19 7 10 1029.5 1029.9 0.0
29/04:30pm 10.3 6.5 4.0 65 3.0 SE 13 17 7 9 1029.4 1029.8 0.0
29/04:00pm 11.0 7.2 3.8 61 3.4 SE 13 17 7 9 1029.2 1029.7 0.0

Other Formats:

Comma delimited format used in spreadsheet applications
http://www.bom.gov.au/fwo/IDN60801/IDN60801.95773.axf

JavaScript Object Notation format (JSON) in row-major order
http://www.bom.gov.au/fwo/IDN60801/IDN60801.95773.json